North Franklin, Connecticut
Current Conditions -  °F | °C
As of 1:52 AM on Thursday 18 Dec 2014 (Local Time) from KIJD Reporting Station
Overcast Overcast  
Wind Chill: 36°   Ceiling: 7000
Heat Index: 39°   Visibility: 10mi
Dew Point: 29°   Wind: 5mph
Humidity: 67%   Direction: NA
Pressure: 29.79"   Gusts: NA
Location:  41.61°N, 72.14°W
Report Text: KIJD 180652Z AUTO VRB04KT 10SM SCT031 OVC070 04/M02 A2979 RMK AO2 SLP088 T00391017
Loading
Personal Weather Stations






























Interactive Weather Map New forecast layout! Learn more

10-Day Weather Forecast

Advertisements
Track Severe Weather on mobile